Ilminster, United Kingdom
Current Conditions -  °F | °C
As of 11:15 AM on Thursday 27 Nov 2014 (Local Time) from EGDY Reporting Station
Haze Haze  
Wind Chill: 45°   Ceiling: 3500
Heat Index: 48°   Visibility: 4mi
Dew Point: 45°   Wind: 7mph
Humidity: 87%   Direction: 140°SE
Pressure: 29.59"   Gusts: NA
Location:  50.93°N, 2.91°W
Report Text: EGDY 271115Z 14006KT 6000 HZ FEW006 BKN035 09/07 Q1002 WHT TEMPO 8000 HZ SCT040 BLU
Loading
Personal Weather Stations






























Interactive Weather Map New forecast layout! Learn more

10-Day Weather Forecast

Advertisements
Track Severe Weather on mobile